PILOTS ONLINE: 378    ATC ONLINE: 60

KOTH

Southwest Oregon Regional Airport

Location

IATA OTH
City North Bend
Country  United States
Latitude 43° 25' 1" N
Longitude 124° 14' 45" W
Elevation 17 ft
Type Medium Airport

Map

Weather

METAR
2014/10/26 01:35
KOTH 260135Z 24007KT 10SM OVC065 14/13 A2990 RMK AO1
TAF
2014/10/25 21:30
TAF 
      AMD KOTH 252126Z 2521/2618 22025G35KT 4SM -SHRA BR OVC020 
      TEMPO 2521/2524 1SM BR OVC010 
     FM260100 26015G25KT 5SM -SHRA BR BKN015 BKN030

Runways

04/22 5321 ft / 150 ft
13/31 4471 ft / 150 ft

Outbound flights

Callsign Flying to Pilot ATD/STD ETA Aircraft

Inbound flights

Callsign Flying from Pilot ATD ETA Aircraft